Bloomington, IN (47408)

2:24 AM EST on January 24, 2018 (GMT -0500)
Griffy Creek Farm | | Change Station
Active Advisory: Special Statement

Elev 850 ft 39.21 °N, 86.48 °W | Updated 14 seconds ago

Overcast
Overcast
32.0 °F
Feels Like 32 °F
N
2.5
Wind Variable Wind from NW
Gusts 2.5 mph

Today
High -- | Low -- °F
--% Chance of Precip.
Yesterday
High -- | Low -- °F
Precip. -- in
Pressure 30.21 in
Visibility 10.0 miles
Clouds Overcast 1400 ft
Windchill 32 °F
Dew Point 32 °F
Humidity 99%
Rainfall 0.00 in
Snow Depth Not available.
7:59 AM 5:57 PM
Waxing Crescent, 43% visible
METAR KBMG 240653Z AUTO 30009KT 10SM OVC014 M01/M03 A3019 RMK AO2 FZRAB0555E17 SLP230 P0000 I1000 T10061028
Pressure 30.21 in
Visibility 10.0 miles
Clouds Overcast 1400 ft
Windchill 32 °F
Dew Point 32 °F
Humidity 99%
Rainfall 0.00 in
Snow Depth Not available.
7:59 AM 5:57 PM
Waxing Crescent, 43% visible
METAR KBMG 240653Z AUTO 30009KT 10SM OVC014 M01/M03 A3019 RMK AO2 FZRAB0555E17 SLP230 P0000 I1000 T10061028

Get Your Daily Forecast Email!

Thanks for signing up!

Be on the lookout for a verification email in your inbox.

You'll start receiving severe weather alerts in your inbox..

×

10-Day Weather Forecast

Almanac

Astronomy

Jan. 24, 2018 Rise Set
Actual Time
Civil Twilight
Nautical Twilight
Astronomical Twilight
Moon
Length of Visible Light
Length of Day
Tomorrow will be .
, % of the Moon is Illuminated

Today's Extremes

State Highs State Lows

Community

WunderPhotos

Category 6

Welcome to Category 6. This is the collective home for Weather Underground's featured writeups by Dr. Jeff Masters (right), Bob Henson (left), Chris Burt, and other regular contributors.

Nearby

Air Quality

  Air Quality AQ Index Pollutant
Not available.

Snow Depth

Station Depth Elevation

Earthquake Activity

City Distance Mag. Time & Date
Minimum magnitude displayed is 2.5.

Coastal Water Temperatures

Place Temperature

Stations

Nearby Weather Stations

Station Location Temp. Windchill Dew Point Humidity Wind Precip. Elev Updated Type
                   

Watches & Warnings

Special Statement
Issued: 11:55 PM EST Jan. 23, 2018 – National Weather Service


... Slick roads possible through the morning commute...

Patchy freezing drizzle overnight may result in slick roads
Wednesday morning.

It is difficult to judge if roads are slick at night. Be alert to
localized slick roads late this evening and overnight! Allow
extra time to reach your destination and reduce your speed
overnight!




1155 PM EST Tue Jan 23 2018


... Slick roads possible through the morning commute...

Patchy freezing drizzle overnight may result in slick roads
Wednesday morning.

It is difficult to judge if roads are slick at night. Be alert to
localized slick roads late this evening and overnight! Allow
extra time to reach your destination and reduce your speed
overnight!